createdAt,value
2023-04-25T00:23:48.988Z,100.00
2023-04-25T00:26:51.882Z,100.00
2023-04-25T00:29:54.319Z,100.00
2023-04-25T00:35:59.625Z,100.00
2023-04-25T00:39:01.976Z,100.00
2023-04-25T00:42:04.764Z,100.00
2023-04-25T00:45:08.686Z,100.00
2023-04-25T00:48:11.357Z,100.00
2023-04-25T00:51:17.690Z,100.00
2023-04-25T00:54:20.394Z,99.76
2023-04-25T00:57:23.141Z,99.62
2023-04-25T01:00:25.582Z,100.00
2023-04-25T01:03:29.856Z,100.00
2023-04-25T01:06:33.017Z,99.57
2023-04-25T01:09:36.614Z,100.00
2023-04-25T01:12:39.085Z,99.40
2023-04-25T01:15:41.569Z,100.00
2023-04-25T01:18:45.552Z,99.82
2023-04-25T01:21:48.179Z,99.11
2023-04-25T01:24:51.675Z,98.94
2023-04-25T01:27:54.331Z,100.00
2023-04-25T01:30:58.314Z,100.00
2023-04-25T01:34:01.846Z,100.00
2023-04-25T01:37:05.169Z,100.00
2023-04-25T01:40:09.284Z,100.00
2023-04-25T01:43:13.128Z,100.00
2023-04-25T01:46:16.339Z,100.00
2023-04-25T01:49:19.958Z,100.00
2023-04-25T01:52:22.752Z,100.00
2023-04-25T01:55:25.604Z,100.00
2023-04-25T01:58:35.213Z,100.00
2023-04-25T02:02:04.624Z,99.69
2023-04-25T02:05:08.788Z,100.00
2023-04-25T02:08:14.477Z,100.00
2023-04-25T02:11:16.928Z,100.00
2023-04-25T02:14:26.589Z,100.00
2023-04-25T02:17:48.153Z,100.00
2023-04-25T02:20:50.716Z,100.00
2023-04-25T02:23:53.711Z,100.00
2023-04-25T02:26:59.211Z,100.00
2023-04-25T02:30:02.245Z,100.00
2023-04-25T02:33:04.750Z,100.00
2023-04-25T02:36:07.801Z,100.00
2023-04-25T02:39:11.326Z,100.00
2023-04-25T02:42:13.833Z,100.00
2023-04-25T02:45:16.338Z,99.95
2023-04-25T02:48:18.807Z,99.73
2023-04-25T02:51:21.357Z,100.00
2023-04-25T02:54:24.077Z,98.55
2023-04-25T02:57:26.576Z,98.55
2023-04-25T03:00:29.598Z,99.43
2023-04-25T03:03:32.453Z,99.24
2023-04-25T03:06:34.906Z,99.01
2023-04-25T03:09:37.545Z,99.53
2023-04-25T03:12:40.168Z,100.00
2023-04-25T03:15:42.588Z,98.12
2023-04-25T03:18:45.034Z,98.79
2023-04-25T03:21:47.826Z,99.36
2023-04-25T03:24:51.127Z,99.34
2023-04-25T03:27:53.499Z,100.00
2023-04-25T03:30:56.089Z,100.00
2023-04-25T03:33:58.681Z,100.00
2023-04-25T03:37:01.627Z,100.00
2023-04-25T03:40:07.688Z,100.00
2023-04-25T03:43:40.462Z,100.00
2023-04-25T03:46:47.062Z,100.00
2023-04-25T03:49:52.764Z,100.00
2023-04-25T03:52:57.905Z,100.00
2023-04-25T03:56:03.356Z,100.00
2023-04-25T03:59:09.015Z,99.84
2023-04-25T04:02:11.907Z,99.63
2023-04-25T04:05:15.628Z,99.76
2023-04-25T04:08:24.711Z,99.53
2023-04-25T04:11:27.352Z,98.93
2023-04-25T04:14:29.761Z,99.87
2023-04-25T04:17:32.779Z,100.00
2023-04-25T04:20:35.472Z,100.00
2023-04-25T04:23:39.646Z,99.62
2023-04-25T04:26:46.052Z,99.72
2023-04-25T04:30:06.026Z,98.73
2023-04-25T04:33:16.241Z,99.26
2023-04-25T04:36:30.797Z,99.07
2023-04-25T04:39:35.091Z,99.51
2023-04-25T04:42:51.422Z,98.93
2023-04-25T04:46:04.521Z,99.66
2023-04-25T04:49:27.416Z,99.76
2023-04-25T04:52:52.674Z,99.92
2023-04-25T04:56:13.462Z,99.88
2023-04-25T04:59:27.034Z,99.77
2023-04-25T05:03:02.225Z,100.00
2023-04-25T05:06:32.204Z,100.00
2023-04-25T05:10:14.184Z,100.00
2023-04-25T05:13:39.687Z,100.00
2023-04-25T05:16:55.223Z,100.00
2023-04-25T05:20:20.717Z,100.00
2023-04-25T05:23:41.502Z,100.00
2023-04-25T05:27:09.851Z,100.00
2023-04-25T05:30:36.428Z,100.00
2023-04-25T05:34:05.194Z,100.00
2023-04-25T05:37:25.564Z,99.91
2023-04-25T05:40:41.847Z,100.00
2023-04-25T05:43:54.116Z,100.00
2023-04-25T05:47:06.037Z,100.00
2023-04-25T05:50:27.631Z,100.00
2023-04-25T05:53:49.235Z,99.08
2023-04-25T05:56:51.880Z,99.78
2023-04-25T05:59:55.116Z,99.67
2023-04-25T06:02:59.170Z,99.38
2023-04-25T06:06:01.890Z,99.47
2023-04-25T06:09:04.497Z,98.89
2023-04-25T06:12:08.204Z,98.88
2023-04-25T06:15:24.503Z,98.46
2023-04-25T06:18:30.881Z,98.10
2023-04-25T06:21:33.402Z,98.67
2023-04-25T06:24:36.434Z,98.91
2023-04-25T06:27:40.328Z,98.34
2023-04-25T06:30:44.070Z,98.24
2023-04-25T06:33:50.322Z,98.46
2023-04-25T06:36:52.979Z,98.28
2023-04-25T06:39:56.867Z,98.31
2023-04-25T06:42:59.352Z,99.12
2023-04-25T06:46:13.436Z,98.27
2023-04-25T06:49:20.354Z,99.27
2023-04-25T06:52:22.992Z,98.36
2023-04-25T06:55:28.393Z,98.15
2023-04-25T06:58:44.251Z,97.95
2023-04-25T07:01:51.748Z,98.21
2023-04-25T07:05:00.841Z,98.36
2023-04-25T07:08:04.079Z,98.45
2023-04-25T07:11:06.681Z,97.79
2023-04-25T07:14:09.146Z,94.72
2023-04-25T07:17:11.766Z,90.38
2023-04-25T07:20:15.589Z,90.50
2023-04-25T07:23:18.255Z,91.21
2023-04-25T07:26:21.013Z,91.25
2023-04-25T07:29:49.345Z,92.33
2023-04-25T07:32:51.841Z,93.11
2023-04-25T07:35:54.421Z,92.17
2023-04-25T07:38:56.878Z,92.11
2023-04-25T07:41:59.620Z,91.41
2023-04-25T07:45:05.666Z,92.56
2023-04-25T07:48:08.963Z,89.89
2023-04-25T07:51:14.229Z,88.83
2023-04-25T07:54:17.013Z,88.91
2023-04-25T07:57:25.365Z,88.76
2023-04-25T08:00:29.979Z,88.89
2023-04-25T08:03:52.502Z,89.94
2023-04-25T08:07:03.531Z,87.52
2023-04-25T08:10:12.217Z,88.13
2023-04-25T08:13:15.459Z,88.30
2023-04-25T08:16:17.925Z,88.90
2023-04-25T08:19:20.602Z,88.86
2023-04-25T08:22:23.823Z,90.17
2023-04-25T08:25:31.347Z,90.67
2023-04-25T08:28:34.097Z,91.33
2023-04-25T08:31:38.317Z,90.56
2023-04-25T08:34:43.240Z,91.32
2023-04-25T08:37:45.796Z,92.50
2023-04-25T08:40:54.473Z,91.45
2023-04-25T08:44:01.285Z,92.10
2023-04-25T08:47:05.324Z,91.97
2023-04-25T08:50:11.246Z,91.95
2023-04-25T08:53:19.847Z,91.92
2023-04-25T08:56:24.301Z,90.77
2023-04-25T08:59:27.159Z,91.14
2023-04-25T09:02:30.781Z,91.21
2023-04-25T09:05:34.432Z,91.84
2023-04-25T09:08:38.560Z,91.65
2023-04-25T09:11:44.171Z,92.29
2023-04-25T09:15:10.860Z,91.23
2023-04-25T09:18:33.108Z,91.47
2023-04-25T09:21:36.617Z,91.80
2023-04-25T09:24:41.685Z,91.37
2023-04-25T09:27:54.419Z,89.90
2023-04-25T09:31:05.455Z,90.02
2023-04-25T09:34:19.089Z,90.01
2023-04-25T09:37:31.004Z,89.60
2023-04-25T09:41:05.775Z,90.54
2023-04-25T09:44:15.237Z,90.09
2023-04-25T09:47:19.361Z,91.86
2023-04-25T09:50:25.614Z,92.07
2023-04-25T09:53:47.734Z,91.28
2023-04-25T09:57:14.560Z,90.72
2023-04-25T10:00:18.440Z,90.85
2023-04-25T10:03:23.948Z,90.92
2023-04-25T10:06:50.550Z,91.08
2023-04-25T10:31:48.547Z,89.96
2023-04-25T10:34:51.410Z,89.09
2023-04-25T10:37:59.702Z,88.43
2023-04-25T10:41:09.973Z,87.74
2023-04-25T10:44:12.511Z,89.52
2023-04-25T10:47:44.213Z,88.58
2023-04-25T10:50:46.665Z,88.56
2023-04-25T10:53:58.439Z,87.71
2023-04-25T10:57:01.287Z,87.73
2023-04-25T11:00:18.025Z,86.22
2023-04-25T11:03:23.331Z,88.69
2023-04-25T11:07:05.534Z,89.29
2023-04-25T11:10:09.300Z,88.86
2023-04-25T11:13:13.181Z,88.33
2023-04-25T11:16:26.806Z,88.89
2023-04-25T11:19:30.520Z,88.79
2023-04-25T11:22:32.961Z,90.41
2023-04-25T11:25:37.800Z,89.62
2023-04-25T11:28:41.329Z,89.29
2023-04-25T11:31:46.868Z,88.40
2023-04-25T11:34:49.613Z,90.75
2023-04-25T11:37:52.288Z,89.89
2023-04-25T11:40:55.192Z,88.96
2023-04-25T11:43:57.891Z,87.59
2023-04-25T11:47:00.526Z,87.35
2023-04-25T11:50:04.761Z,86.99
2023-04-25T11:53:08.777Z,87.75
2023-04-25T11:56:15.139Z,86.81
2023-04-25T11:59:17.805Z,86.83
2023-04-25T12:02:27.818Z,88.54
2023-04-25T12:05:33.984Z,89.77
2023-04-25T12:08:37.167Z,89.46
2023-04-25T12:11:46.966Z,88.12
2023-04-25T12:14:50.070Z,87.77
2023-04-25T12:17:55.008Z,88.28
2023-04-25T12:20:57.671Z,88.48
2023-04-25T12:24:20.329Z,88.70
2023-04-25T12:27:22.751Z,87.49
2023-04-25T12:30:25.911Z,88.39
2023-04-25T12:33:33.459Z,89.52
2023-04-25T12:36:36.191Z,88.34
2023-04-25T12:39:38.819Z,89.69
2023-04-25T12:42:41.232Z,90.09
2023-04-25T12:45:43.663Z,89.36
2023-04-25T12:48:46.443Z,89.03
2023-04-25T12:51:49.082Z,89.89
2023-04-25T12:54:51.498Z,88.91
2023-04-25T12:57:53.984Z,88.40
2023-04-25T13:00:56.505Z,88.51
2023-04-25T13:03:59.014Z,88.07
2023-04-25T13:07:01.612Z,89.21
2023-04-25T13:10:04.265Z,89.87
2023-04-25T13:13:06.704Z,88.03
2023-04-25T13:16:09.809Z,89.06
2023-04-25T13:19:12.669Z,88.53
2023-04-25T13:22:16.453Z,89.95
2023-04-25T13:25:18.892Z,90.25
2023-04-25T13:28:21.363Z,88.79
2023-04-25T13:31:23.864Z,90.14
2023-04-25T13:34:26.344Z,90.37
2023-04-25T13:37:28.973Z,90.62
2023-04-25T13:40:31.601Z,90.26
2023-04-25T13:43:34.932Z,89.25
2023-04-25T13:49:44.086Z,89.80
2023-04-25T13:52:46.680Z,90.26
2023-04-25T13:55:49.151Z,89.21
2023-04-25T13:58:52.871Z,88.70
2023-04-25T14:01:56.034Z,88.15
2023-04-25T14:04:58.725Z,86.98
2023-04-25T14:08:02.372Z,87.41
2023-04-25T14:11:04.976Z,87.16
2023-04-25T14:14:07.608Z,87.66
2023-04-25T14:17:10.358Z,88.02
2023-04-25T14:20:12.759Z,86.60
2023-04-25T14:23:15.456Z,86.16
2023-04-25T14:26:17.848Z,86.94
2023-04-25T14:29:20.295Z,87.72
2023-04-25T14:32:22.928Z,85.06
2023-04-25T14:35:25.510Z,86.44
2023-04-25T14:38:28.073Z,84.27
2023-04-25T14:41:30.473Z,83.49
2023-04-25T14:44:32.997Z,85.83
2023-04-25T14:47:38.766Z,85.68
2023-04-25T14:50:41.333Z,83.61
2023-04-25T14:53:43.770Z,86.61
2023-04-25T14:56:46.161Z,85.90
2023-04-25T14:59:48.748Z,86.91
2023-04-25T15:02:51.898Z,85.93
2023-04-25T15:05:57.933Z,86.15
2023-04-25T15:09:00.914Z,85.51
2023-04-25T15:12:03.706Z,87.75
2023-04-25T15:15:07.401Z,87.10
2023-04-25T15:18:10.025Z,87.79
2023-04-25T15:21:12.828Z,88.69
2023-04-25T15:24:16.443Z,88.16
2023-04-25T15:27:19.152Z,87.25
2023-04-25T15:30:26.201Z,87.95
2023-04-25T15:33:29.008Z,87.34
2023-04-25T15:36:32.548Z,87.12
2023-04-25T15:39:35.035Z,86.65
2023-04-25T15:42:55.113Z,85.43
2023-04-25T15:45:57.541Z,85.04
2023-04-25T15:48:59.944Z,84.57
2023-04-25T15:52:02.575Z,83.74
2023-04-25T15:55:06.487Z,84.21
2023-04-25T15:58:10.742Z,84.01
2023-04-25T16:01:15.796Z,83.74
2023-04-25T16:04:18.559Z,83.37
2023-04-25T16:07:21.037Z,83.77
2023-04-25T16:10:25.358Z,82.22
2023-04-25T16:13:27.808Z,84.13
2023-04-25T16:16:30.473Z,83.42
2023-04-25T16:19:32.879Z,82.94
2023-04-25T16:22:39.161Z,82.47
2023-04-25T16:25:43.041Z,82.49
2023-04-25T16:28:45.541Z,83.10
2023-04-25T16:31:48.687Z,84.22
2023-04-25T16:34:51.388Z,83.61
2023-04-25T16:37:53.864Z,82.67
2023-04-25T16:40:59.777Z,83.56
2023-04-25T16:44:02.158Z,83.52
2023-04-25T16:47:06.160Z,82.44
2023-04-25T16:50:09.200Z,83.42
2023-04-25T16:53:11.974Z,83.52
2023-04-25T16:56:14.454Z,81.97
2023-04-25T16:59:17.188Z,83.16
2023-04-25T17:02:19.757Z,83.66
2023-04-25T17:05:22.517Z,82.54
2023-04-25T17:08:25.034Z,83.44
2023-04-25T17:11:28.831Z,83.04
2023-04-25T17:14:33.269Z,83.34
2023-04-25T17:17:35.782Z,82.15
2023-04-25T17:20:39.072Z,83.40
2023-04-25T17:23:45.547Z,84.16
2023-04-25T17:26:49.032Z,83.88
2023-04-25T17:29:51.933Z,84.94
2023-04-25T17:32:54.387Z,83.47
2023-04-25T17:35:56.810Z,84.30
2023-04-25T17:38:59.226Z,85.56
2023-04-25T17:42:02.410Z,84.77
2023-04-25T17:45:06.069Z,85.48
2023-04-25T17:48:08.711Z,84.80
2023-04-25T17:51:11.500Z,85.80
2023-04-25T17:54:14.717Z,86.27
2023-04-25T17:57:17.985Z,86.14
2023-04-25T18:00:20.491Z,85.54
2023-04-25T18:03:23.296Z,86.50
2023-04-25T18:06:28.309Z,85.39
2023-04-25T18:09:32.350Z,86.18
2023-04-25T18:12:35.053Z,86.27
2023-04-25T18:15:37.457Z,86.08
2023-04-25T18:18:43.140Z,84.39
2023-04-25T18:21:45.976Z,85.75
2023-04-25T18:24:50.969Z,84.53
2023-04-25T18:27:53.528Z,85.28
2023-04-25T18:30:56.789Z,85.14
2023-04-25T18:33:59.603Z,85.43
2023-04-25T18:37:02.373Z,85.48
2023-04-25T18:40:07.195Z,85.37
2023-04-25T18:43:09.949Z,86.24
2023-04-25T18:46:13.674Z,85.38
2023-04-25T18:49:16.393Z,84.95
2023-04-25T18:52:19.689Z,85.15
2023-04-25T18:55:22.324Z,85.50
2023-04-25T18:58:25.273Z,84.95
2023-04-25T19:01:28.115Z,84.69
2023-04-25T19:04:31.048Z,85.30
2023-04-25T19:07:33.795Z,85.23
2023-04-25T19:10:39.116Z,85.12
2023-04-25T19:13:41.906Z,84.56
2023-04-25T19:16:44.832Z,84.93
2023-04-25T19:19:47.808Z,84.70
2023-04-25T19:22:51.754Z,84.92
2023-04-25T19:25:54.398Z,85.07
2023-04-25T19:29:07.195Z,84.88
2023-04-25T19:32:10.051Z,84.37
2023-04-25T19:35:13.477Z,84.22
2023-04-25T19:38:16.586Z,84.63
2023-04-25T19:41:19.399Z,84.98
2023-04-25T19:44:22.233Z,84.84
2023-04-25T19:47:27.656Z,83.97
2023-04-25T19:50:30.917Z,83.94
2023-04-25T19:53:33.654Z,84.51
2023-04-25T19:56:36.392Z,84.99
2023-04-25T19:59:39.299Z,86.65
2023-04-25T20:02:45.279Z,85.16
2023-04-25T20:05:48.787Z,85.73
2023-04-25T20:08:55.235Z,86.40
2023-04-25T20:11:57.745Z,86.05
2023-04-25T20:15:00.866Z,86.18
2023-04-25T20:18:04.580Z,85.87
2023-04-25T20:21:08.535Z,87.65
2023-04-25T20:24:11.963Z,86.90
2023-04-25T20:27:14.382Z,86.94
2023-04-25T20:30:16.871Z,86.12
2023-04-25T20:33:19.297Z,85.75
2023-04-25T20:36:21.986Z,86.66
2023-04-25T20:39:25.031Z,86.59
2023-04-25T20:42:27.687Z,86.39
2023-04-25T20:45:32.226Z,87.41
2023-04-25T20:48:35.718Z,88.07
2023-04-25T20:51:38.397Z,87.91
2023-04-25T20:54:41.613Z,87.83
2023-04-25T20:57:43.995Z,88.25
2023-04-25T21:00:47.726Z,87.73
2023-04-25T21:03:53.172Z,87.80
2023-04-25T21:06:55.740Z,87.60
2023-04-25T21:09:58.237Z,88.18
2023-04-25T21:13:00.846Z,88.85
2023-04-25T21:16:03.723Z,88.94
2023-04-25T21:19:06.823Z,88.87
2023-04-25T21:22:09.287Z,88.51
2023-04-25T21:25:11.718Z,88.90
2023-04-25T21:28:14.191Z,90.13
2023-04-25T21:31:16.716Z,88.49
2023-04-25T21:34:19.253Z,88.84
2023-04-25T21:37:21.725Z,88.49
2023-04-25T21:40:24.946Z,88.90
2023-04-25T21:43:27.289Z,88.39
2023-04-25T21:46:29.759Z,88.32
2023-04-25T21:49:33.119Z,88.51
2023-04-25T21:52:36.150Z,88.52
2023-04-25T21:55:38.697Z,89.12
2023-04-25T21:58:41.107Z,88.57
2023-04-25T22:01:45.436Z,87.87
2023-04-25T22:04:48.410Z,88.64
2023-04-25T22:07:51.938Z,88.31
2023-04-25T22:10:55.294Z,88.65
2023-04-25T22:13:57.921Z,88.51
2023-04-25T22:17:01.268Z,88.94
2023-04-25T22:20:09.754Z,89.56
2023-04-25T22:23:13.779Z,89.83
2023-04-25T22:26:16.210Z,88.97
2023-04-25T22:29:18.748Z,89.98
2023-04-25T22:32:21.163Z,89.46
2023-04-25T22:35:23.906Z,90.67
2023-04-25T22:38:26.532Z,90.40
2023-04-25T22:41:29.016Z,89.43
2023-04-25T22:44:31.518Z,90.40
2023-04-25T22:47:37.796Z,90.18
2023-04-25T22:50:40.871Z,91.19
2023-04-25T22:53:45.275Z,90.17
2023-04-25T22:56:47.692Z,90.13
2023-04-25T22:59:54.205Z,89.68
2023-04-25T23:02:57.138Z,91.15
2023-04-25T23:06:00.279Z,90.02
2023-04-25T23:09:02.977Z,90.94
2023-04-25T23:12:05.834Z,90.84
2023-04-25T23:15:09.390Z,89.74
2023-04-25T23:18:11.906Z,89.92
2023-04-25T23:21:14.523Z,90.27
2023-04-25T23:24:16.915Z,90.96
2023-04-25T23:27:19.241Z,91.39
2023-04-25T23:30:21.869Z,91.57
2023-04-25T23:33:24.298Z,90.71
2023-04-25T23:36:28.106Z,90.79
2023-04-25T23:39:30.962Z,90.61
2023-04-25T23:42:33.531Z,91.43
2023-04-25T23:45:36.464Z,90.94
2023-04-25T23:48:38.881Z,91.20
2023-04-25T23:51:41.394Z,91.70
2023-04-25T23:54:43.746Z,92.50
2023-04-25T23:57:46.292Z,92.01
